Time;durP1;ratioP1;P1;durP2;ratioP2;P2;SDS_P1;SDS_P2;PMS_P1;PMS_P2;Temp;Humidity;BMP_temperature;BMP_pressure;BME280_temperature;BME280_humidity;BME280_pressure;Samples;Min_cycle;Max_cycle;Signal;HPM_P1;HPM_P2
2023/06/01 00:00:56;;;;;;;;;;;16.00;99.90;;;;;;5005466;28;19978;-74
2023/06/01 00:03:26;;;;;;;;;;;15.90;99.90;;;;;;5001899;28;20416;-75
2023/06/01 00:05:53;;;;;;;;;;;15.80;99.90;;;;;;5000041;28;19964;-74
2023/06/01 00:08:20;;;;;;;;;;;15.80;99.90;;;;;;5005078;28;19925;-77
2023/06/01 00:10:46;;;;;;;;;;;15.80;99.90;;;;;;5000231;28;19926;-74
2023/06/01 00:13:13;;;;;;;;;;;15.70;99.90;;;;;;5006783;28;19933;-75
2023/06/01 00:15:43;;;;;;;;;;;15.50;99.90;;;;;;4989925;28;19930;-76
2023/06/01 00:18:12;;;;;;;;;;;15.40;99.90;;;;;;4991980;28;19926;-75
2023/06/01 00:20:39;;;;;;;;;;;15.30;99.90;;;;;;5000395;28;20308;-75
2023/06/01 00:23:06;;;;;;;;;;;15.30;99.90;;;;;;4999853;28;20025;-75
2023/06/01 00:25:33;;;;;;;;;;;15.20;99.90;;;;;;5006420;28;20433;-76
2023/06/01 00:28:02;;;;;;;;;;;15.20;99.90;;;;;;4993681;28;19933;-75
2023/06/01 00:30:28;;;;;;;;;;;15.20;99.90;;;;;;5006836;28;19968;-75
2023/06/01 00:32:57;;;;;;;;;;;15.20;99.90;;;;;;4999675;28;19933;-75
2023/06/01 00:35:24;;;;;;;;;;;15.10;99.90;;;;;;5001019;28;19937;-76
2023/06/01 00:37:50;;;;;;;;;;;15.10;99.90;;;;;;5003588;28;19926;-77
2023/06/01 00:40:17;;;;;;;;;;;15.10;99.90;;;;;;4999892;28;19926;-74
2023/06/01 00:42:44;;;;;;;;;;;15.10;99.90;;;;;;5005112;28;19926;-75
2023/06/01 00:45:11;;;;;;;;;;;15.10;99.90;;;;;;4999436;28;19993;-77
2023/06/01 00:47:41;;;;;;;;;;;15.00;99.90;;;;;;4994749;28;19933;-75
2023/06/01 00:50:09;;;;;;;;;;;15.00;99.90;;;;;;4996965;28;20006;-76
2023/06/01 00:52:36;;;;;;;;;;;15.00;99.90;;;;;;4994699;28;19933;-75
2023/06/01 00:55:04;;;;;;;;;;;15.00;99.90;;;;;;5002446;28;19933;-77
2023/06/01 00:57:31;;;;;;;;;;;15.00;99.90;;;;;;5001322;28;20040;-77
2023/06/01 00:59:58;;;;;;;;;;;14.90;99.90;;;;;;5004227;28;19925;-77
2023/06/01 01:02:25;;;;;;;;;;;14.90;99.90;;;;;;5002426;28;19933;-75
2023/06/01 01:04:52;;;;;;;;;;;14.90;99.90;;;;;;4996075;28;19926;-77
2023/06/01 01:07:26;;;;;;;;;;;14.90;99.90;;;;;;4998601;28;19926;-75
2023/06/01 01:09:57;;;;;;;;;;;14.90;99.90;;;;;;4995904;28;19929;-75
2023/06/01 01:12:26;;;;;;;;;;;14.90;99.90;;;;;;4997384;28;20028;-74
2023/06/01 01:14:56;;;;;;;;;;;14.80;99.90;;;;;;4996576;28;19931;-75
2023/06/01 01:17:30;;;;;;;;;;;14.80;99.90;;;;;;5004612;28;20375;-76
2023/06/01 01:19:59;;;;;;;;;;;14.70;99.90;;;;;;4998054;28;19926;-75
2023/06/01 01:22:38;;;;;;;;;;;14.70;99.90;;;;;;4997958;28;19980;-75
2023/06/01 01:25:15;;;;;;;;;;;14.70;99.90;;;;;;4998243;28;19926;-75
2023/06/01 01:27:46;;;;;;;;;;;14.70;99.90;;;;;;4998141;28;19926;-75
2023/06/01 01:30:14;;;;;;;;;;;14.70;99.90;;;;;;4998962;28;19926;-75
2023/06/01 01:32:41;;;;;;;;;;;14.70;99.90;;;;;;4998043;28;19933;-76
2023/06/01 01:35:10;;;;;;;;;;;14.60;99.90;;;;;;4990533;28;19926;-75
2023/06/01 01:37:37;;;;;;;;;;;14.60;99.90;;;;;;4998779;28;19964;-76
2023/06/01 01:40:05;;;;;;;;;;;14.60;99.90;;;;;;5001691;28;19925;-75
2023/06/01 01:42:31;;;;;;;;;;;14.60;99.90;;;;;;5020785;23;19965;-75
2023/06/01 01:44:58;;;;;;;;;;;14.50;99.90;;;;;;5022776;28;19937;-75
2023/06/01 01:47:30;;;;;;;;;;;14.40;99.90;;;;;;5018014;28;19926;-75
2023/06/01 01:49:59;;;;;;;;;;;14.40;99.90;;;;;;5022030;28;19929;-75
2023/06/01 01:52:27;;;;;;;;;;;14.30;99.90;;;;;;5015379;28;19936;-74
2023/06/01 01:54:54;;;;;;;;;;;14.20;99.90;;;;;;5008444;28;19932;-75
2023/06/01 01:57:23;;;;;;;;;;;14.10;99.90;;;;;;5018122;28;19925;-75
2023/06/01 01:59:50;;;;;;;;;;;14.10;99.90;;;;;;5016238;28;20428;-75
2023/06/01 02:02:16;;;;;;;;;;;14.00;99.90;;;;;;5016677;28;19933;-75
2023/06/01 02:04:45;;;;;;;;;;;13.90;99.90;;;;;;5019851;28;19925;-75
2023/06/01 02:07:13;;;;;;;;;;;13.90;99.90;;;;;;5018041;28;20381;-75
2023/06/01 02:09:40;;;;;;;;;;;13.90;99.90;;;;;;5016937;28;20024;-77
2023/06/01 02:12:09;;;;;;;;;;;13.80;99.90;;;;;;5003660;28;19925;-74
2023/06/01 02:14:35;;;;;;;;;;;13.70;99.90;;;;;;5015500;28;19929;-75
2023/06/01 02:17:02;;;;;;;;;;;13.70;99.90;;;;;;5017607;28;19932;-75
2023/06/01 02:19:29;;;;;;;;;;;13.60;99.90;;;;;;5017039;28;19929;-75
2023/06/01 02:21:58;;;;;;;;;;;13.60;99.90;;;;;;5019994;28;20416;-75
2023/06/01 02:24:24;;;;;;;;;;;13.60;99.90;;;;;;5011444;28;20029;-75
2023/06/01 02:26:53;;;;;;;;;;;13.60;99.90;;;;;;5021350;28;20389;-75
2023/06/01 02:29:21;;;;;;;;;;;13.50;99.90;;;;;;5018738;28;19925;-75
2023/06/01 02:31:48;;;;;;;;;;;13.50;99.90;;;;;;5026984;28;19983;-75
2023/06/01 02:34:15;;;;;;;;;;;13.50;99.90;;;;;;5017519;28;19936;-75
2023/06/01 02:36:42;;;;;;;;;;;13.50;99.90;;;;;;5015976;28;19937;-75
2023/06/01 02:39:10;;;;;;;;;;;13.40;99.90;;;;;;5022962;28;19926;-75
2023/06/01 02:41:37;;;;;;;;;;;13.30;99.90;;;;;;5020233;28;19929;-77
2023/06/01 02:44:03;;;;;;;;;;;13.10;99.90;;;;;;5020132;28;19925;-74
2023/06/01 02:46:31;;;;;;;;;;;13.10;99.90;;;;;;5014039;28;19925;-75
2023/06/01 02:48:58;;;;;;;;;;;13.00;99.90;;;;;;5017810;28;19926;-75
2023/06/01 02:51:24;;;;;;;;;;;12.90;99.90;;;;;;5015601;28;19931;-75
2023/06/01 02:54:01;;;;;;;;;;;12.80;99.90;;;;;;5025128;28;19925;-75
2023/06/01 02:56:30;;;;;;;;;;;12.70;99.90;;;;;;5014538;28;19968;-74
2023/06/01 02:59:15;;;;;;;;;;;12.70;99.90;;;;;;5021280;28;19967;-74
2023/06/01 03:01:48;;;;;;;;;;;12.60;99.90;;;;;;5019672;28;19929;-75
2023/06/01 03:04:15;;;;;;;;;;;12.60;99.90;;;;;;5019555;28;20504;-75
2023/06/01 03:06:43;;;;;;;;;;;12.60;99.90;;;;;;5023763;28;19948;-74
2023/06/01 03:09:28;;;;;;;;;;;12.50;99.90;;;;;;5021271;28;20292;-75
2023/06/01 03:12:00;;;;;;;;;;;12.50;99.90;;;;;;5022858;28;19929;-75
2023/06/01 03:14:28;;;;;;;;;;;12.40;99.90;;;;;;5014741;28;19957;-75
2023/06/01 03:16:55;;;;;;;;;;;12.40;99.90;;;;;;5018768;28;19932;-75
2023/06/01 03:19:23;;;;;;;;;;;12.40;99.90;;;;;;5021261;28;20393;-74
2023/06/01 03:21:53;;;;;;;;;;;12.30;99.90;;;;;;5027118;28;20307;-75
2023/06/01 03:24:22;;;;;;;;;;;12.30;99.90;;;;;;5013771;28;19940;-74
2023/06/01 03:26:50;;;;;;;;;;;12.20;99.90;;;;;;5024164;28;19936;-75
2023/06/01 03:29:20;;;;;;;;;;;12.10;99.90;;;;;;5022681;28;19925;-73
2023/06/01 03:31:46;;;;;;;;;;;12.10;99.90;;;;;;5034132;28;19929;-76
2023/06/01 03:34:14;;;;;;;;;;;12.00;99.90;;;;;;5015952;28;19968;-75
2023/06/01 03:36:41;;;;;;;;;;;12.00;99.90;;;;;;5016977;28;19925;-75
2023/06/01 03:39:09;;;;;;;;;;;12.00;99.90;;;;;;5018383;28;19925;-75
2023/06/01 03:41:37;;;;;;;;;;;12.00;99.90;;;;;;5017749;28;20019;-74
2023/06/01 03:44:05;;;;;;;;;;;11.90;99.90;;;;;;5021569;28;20436;-75
2023/06/01 03:46:33;;;;;;;;;;;11.90;99.90;;;;;;5011091;28;19937;-74
2023/06/01 03:49:00;;;;;;;;;;;11.90;99.90;;;;;;5012494;28;19929;-75
2023/06/01 03:51:28;;;;;;;;;;;11.80;99.90;;;;;;5019645;28;19966;-75
2023/06/01 03:53:55;;;;;;;;;;;11.80;99.90;;;;;;5016807;28;19933;-75
2023/06/01 03:56:22;;;;;;;;;;;11.80;99.90;;;;;;5020667;28;19932;-77
2023/06/01 03:58:50;;;;;;;;;;;11.90;99.90;;;;;;5020462;28;20051;-77
2023/06/01 04:01:19;;;;;;;;;;;11.80;99.90;;;;;;5020799;28;19925;-77
2023/06/01 04:03:50;;;;;;;;;;;11.80;99.90;;;;;;5019537;28;20040;-78
2023/06/01 04:06:17;;;;;;;;;;;11.80;99.90;;;;;;5025296;28;19925;-77
2023/06/01 04:08:49;;;;;;;;;;;11.80;99.90;;;;;;5011694;28;19933;-77
2023/06/01 04:11:16;;;;;;;;;;;11.80;99.90;;;;;;5019771;28;19925;-78
2023/06/01 04:13:43;;;;;;;;;;;11.80;99.90;;;;;;5013577;28;19976;-77
2023/06/01 04:16:10;;;;;;;;;;;11.90;99.90;;;;;;5019387;28;19929;-77
2023/06/01 04:18:37;;;;;;;;;;;11.80;99.90;;;;;;5009618;28;19940;-77
2023/06/01 04:21:06;;;;;;;;;;;11.80;99.90;;;;;;5018009;28;19967;-77
2023/06/01 04:23:34;;;;;;;;;;;11.80;99.90;;;;;;5017452;28;20312;-77
2023/06/01 04:26:02;;;;;;;;;;;11.80;99.90;;;;;;5014193;28;19980;-77
2023/06/01 04:28:30;;;;;;;;;;;11.80;99.90;;;;;;5018096;28;20045;-77
2023/06/01 04:30:58;;;;;;;;;;;11.80;99.90;;;;;;5015639;28;20660;-77
2023/06/01 04:33:25;;;;;;;;;;;11.80;99.90;;;;;;5017634;28;19926;-77
2023/06/01 04:35:53;;;;;;;;;;;11.80;99.90;;;;;;5018130;28;19925;-77
2023/06/01 04:38:24;;;;;;;;;;;11.90;99.90;;;;;;5019732;28;19931;-77
2023/06/01 04:40:53;;;;;;;;;;;12.00;99.90;;;;;;5022674;28;20048;-74
2023/06/01 04:43:20;;;;;;;;;;;12.00;99.90;;;;;;5013906;28;20286;-78
2023/06/01 04:45:48;;;;;;;;;;;12.10;99.90;;;;;;5016314;28;19933;-79
2023/06/01 04:48:16;;;;;;;;;;;12.10;99.90;;;;;;5013483;28;19926;-81
2023/06/01 04:50:51;;;;;;;;;;;12.30;99.90;;;;;;5019699;28;19925;-80
2023/06/01 04:53:18;;;;;;;;;;;12.70;99.90;;;;;;5010041;28;19933;-77
2023/06/01 04:55:46;;;;;;;;;;;13.00;99.90;;;;;;5016735;28;19929;-75
2023/06/01 04:58:13;;;;;;;;;;;13.10;99.90;;;;;;5016255;28;19930;-78
2023/06/01 05:00:40;;;;;;;;;;;13.30;99.90;;;;;;5020995;28;19948;-77
2023/06/01 05:03:07;;;;;;;;;;;13.30;99.90;;;;;;5008621;28;19926;-73
2023/06/01 05:05:34;;;;;;;;;;;13.20;99.90;;;;;;5010748;28;19925;-74
2023/06/01 05:08:01;;;;;;;;;;;13.20;99.90;;;;;;5014834;28;20383;-73
2023/06/01 05:10:28;;;;;;;;;;;13.10;99.90;;;;;;5016317;28;20278;-76
2023/06/01 05:12:56;;;;;;;;;;;13.00;99.90;;;;;;5013697;28;20335;-76
2023/06/01 05:15:23;;;;;;;;;;;13.00;99.90;;;;;;5012942;28;20345;-76
2023/06/01 05:17:50;;;;;;;;;;;12.90;99.90;;;;;;5012472;28;20464;-76
2023/06/01 05:20:19;;;;;;;;;;;12.80;99.90;;;;;;5015027;28;20404;-76
2023/06/01 05:22:52;;;;;;;;;;;12.80;99.90;;;;;;5018661;28;19938;-76
2023/06/01 05:25:19;;;;;;;;;;;12.70;99.90;;;;;;5019108;28;19933;-75
2023/06/01 05:27:45;;;;;;;;;;;12.60;99.90;;;;;;5015892;28;20020;-76
2023/06/01 05:30:14;;;;;;;;;;;12.70;99.90;;;;;;5021398;28;19932;-76
2023/06/01 05:32:42;;;;;;;;;;;12.60;99.90;;;;;;5010918;28;19925;-76
2023/06/01 05:35:12;;;;;;;;;;;12.60;99.90;;;;;;5016038;28;19929;-76
2023/06/01 05:37:40;;;;;;;;;;;12.60;99.90;;;;;;5022506;28;19925;-76
2023/06/01 05:40:08;;;;;;;;;;;12.60;99.90;;;;;;5007878;28;19925;-75
2023/06/01 05:42:35;;;;;;;;;;;12.60;99.90;;;;;;5016240;28;19937;-75
2023/06/01 05:45:02;;;;;;;;;;;12.60;99.90;;;;;;5010491;28;20396;-76
2023/06/01 05:47:31;;;;;;;;;;;12.70;99.90;;;;;;5016965;28;19932;-77
2023/06/01 05:49:58;;;;;;;;;;;12.80;99.90;;;;;;5017829;28;19929;-76
2023/06/01 05:52:25;;;;;;;;;;;12.70;99.90;;;;;;5012967;28;20439;-76
2023/06/01 05:54:53;;;;;;;;;;;12.70;99.90;;;;;;5016660;28;20389;-75
2023/06/01 05:57:20;;;;;;;;;;;12.60;99.90;;;;;;5017590;28;20376;-75
2023/06/01 05:59:47;;;;;;;;;;;12.60;99.90;;;;;;5014497;28;19983;-76
2023/06/01 06:02:14;;;;;;;;;;;12.60;99.90;;;;;;5013190;28;20343;-76
2023/06/01 06:04:43;;;;;;;;;;;12.70;99.90;;;;;;5009941;28;19934;-76
2023/06/01 06:07:10;;;;;;;;;;;12.80;99.90;;;;;;5013846;28;20044;-76
2023/06/01 06:09:37;;;;;;;;;;;12.90;99.90;;;;;;5008232;28;19971;-76
2023/06/01 06:12:04;;;;;;;;;;;13.00;99.90;;;;;;5013783;28;19933;-76
2023/06/01 06:14:31;;;;;;;;;;;13.10;99.90;;;;;;5010622;28;19926;-76
2023/06/01 06:16:58;;;;;;;;;;;13.20;99.90;;;;;;5010679;28;20411;-76
2023/06/01 06:19:24;;;;;;;;;;;13.10;99.90;;;;;;5013425;28;20020;-74
2023/06/01 06:21:53;;;;;;;;;;;13.30;99.90;;;;;;5017884;28;19933;-74
2023/06/01 06:24:20;;;;;;;;;;;13.20;99.90;;;;;;5016627;28;19973;-73
2023/06/01 06:26:47;;;;;;;;;;;13.30;99.90;;;;;;5009472;28;19926;-72
2023/06/01 06:29:14;;;;;;;;;;;13.20;99.90;;;;;;5009653;28;19930;-73
2023/06/01 06:31:41;;;;;;;;;;;13.20;99.90;;;;;;5017050;28;20367;-73
2023/06/01 06:34:08;;;;;;;;;;;13.30;99.90;;;;;;5030333;28;19930;-74
2023/06/01 06:36:35;;;;;;;;;;;13.30;99.90;;;;;;5017854;28;19929;-73
2023/06/01 06:39:03;;;;;;;;;;;13.10;99.90;;;;;;5017001;28;19925;-74
2023/06/01 06:41:30;;;;;;;;;;;13.10;99.90;;;;;;5017865;28;20469;-73
2023/06/01 06:43:57;;;;;;;;;;;12.90;99.90;;;;;;5012027;28;19975;-73
2023/06/01 06:46:24;;;;;;;;;;;12.80;99.90;;;;;;5011403;28;19932;-73
2023/06/01 06:48:50;;;;;;;;;;;12.80;99.90;;;;;;5015061;28;19926;-73
2023/06/01 06:51:17;;;;;;;;;;;12.80;99.90;;;;;;5014284;28;19926;-74
2023/06/01 06:53:44;;;;;;;;;;;12.70;99.90;;;;;;5014969;28;19971;-73
2023/06/01 06:56:12;;;;;;;;;;;12.50;99.90;;;;;;5012181;28;20681;-73
2023/06/01 06:58:39;;;;;;;;;;;12.40;99.90;;;;;;5009448;28;19975;-73
2023/06/01 07:01:06;;;;;;;;;;;12.50;99.90;;;;;;5014372;28;19968;-74
2023/06/01 07:03:33;;;;;;;;;;;12.60;99.90;;;;;;5013631;28;20393;-74
2023/06/01 07:06:00;;;;;;;;;;;12.70;99.90;;;;;;5010380;28;19971;-74
2023/06/01 07:08:27;;;;;;;;;;;12.70;99.90;;;;;;5013820;28;19926;-73
2023/06/01 07:10:53;;;;;;;;;;;12.70;99.90;;;;;;5009225;28;19929;-75
2023/06/01 07:13:22;;;;;;;;;;;12.70;99.90;;;;;;5018189;28;19925;-74
2023/06/01 07:15:48;;;;;;;;;;;12.70;99.90;;;;;;5010667;28;20388;-76
2023/06/01 07:18:15;;;;;;;;;;;12.80;99.90;;;;;;5015682;28;19925;-74
2023/06/01 07:20:42;;;;;;;;;;;13.00;99.90;;;;;;5018142;28;19925;-74
2023/06/01 07:23:12;;;;;;;;;;;13.00;99.90;;;;;;5019485;28;19934;-74
2023/06/01 07:25:38;;;;;;;;;;;13.00;99.90;;;;;;5009333;28;19926;-73
2023/06/01 07:28:07;;;;;;;;;;;13.10;99.90;;;;;;5016427;28;19983;-74
2023/06/01 07:30:35;;;;;;;;;;;13.30;99.90;;;;;;5040784;28;19932;-74
2023/06/01 07:33:02;;;;;;;;;;;13.50;99.90;;;;;;5011352;28;19925;-73
2023/06/01 07:35:29;;;;;;;;;;;13.60;99.90;;;;;;5017067;28;19929;-75
2023/06/01 07:37:56;;;;;;;;;;;13.60;99.90;;;;;;5019208;28;19926;-74
2023/06/01 07:40:23;;;;;;;;;;;13.60;99.90;;;;;;5013294;28;19934;-74
2023/06/01 07:42:49;;;;;;;;;;;13.60;99.90;;;;;;5021591;28;19956;-74
2023/06/01 07:45:16;;;;;;;;;;;13.70;99.90;;;;;;5016235;28;19926;-74
2023/06/01 07:47:44;;;;;;;;;;;14.00;99.90;;;;;;5023874;28;19929;-74
2023/06/01 07:50:11;;;;;;;;;;;14.20;99.90;;;;;;5015822;28;19941;-74
2023/06/01 07:52:38;;;;;;;;;;;14.40;99.90;;;;;;5013579;28;19925;-76
2023/06/01 07:55:06;;;;;;;;;;;14.40;99.90;;;;;;5019772;28;19925;-74
2023/06/01 07:57:32;;;;;;;;;;;14.40;99.90;;;;;;5016732;28;20359;-75
2023/06/01 07:59:59;;;;;;;;;;;14.40;99.90;;;;;;5014258;28;20331;-75
2023/06/01 08:02:26;;;;;;;;;;;14.40;99.90;;;;;;5010894;28;20427;-74
2023/06/01 08:04:56;;;;;;;;;;;14.40;99.90;;;;;;5035383;28;20021;-74
2023/06/01 08:07:27;;;;;;;;;;;14.20;99.90;;;;;;5018138;28;20458;-74
2023/06/01 08:09:54;;;;;;;;;;;14.00;99.90;;;;;;5029393;28;19933;-74
2023/06/01 08:12:21;;;;;;;;;;;13.80;99.90;;;;;;5015734;28;19935;-74
2023/06/01 08:14:48;;;;;;;;;;;13.90;99.90;;;;;;5011614;28;19932;-75
2023/06/01 08:17:15;;;;;;;;;;;14.00;99.90;;;;;;5011770;28;19926;-74
2023/06/01 08:19:42;;;;;;;;;;;14.20;99.90;;;;;;5015515;28;19940;-74
2023/06/01 08:22:11;;;;;;;;;;;14.40;99.90;;;;;;5015502;28;19926;-75
2023/06/01 08:24:38;;;;;;;;;;;14.60;99.90;;;;;;5024296;28;19969;-74
2023/06/01 08:27:16;;;;;;;;;;;14.70;99.90;;;;;;5018278;28;19933;-74
2023/06/01 08:29:43;;;;;;;;;;;14.80;99.90;;;;;;5011547;28;19926;-74
2023/06/01 08:32:09;;;;;;;;;;;14.80;99.90;;;;;;5019364;28;19925;-74
2023/06/01 08:34:36;;;;;;;;;;;14.90;99.90;;;;;;5015397;28;19926;-74
2023/06/01 08:37:03;;;;;;;;;;;15.00;99.90;;;;;;5015465;28;19984;-75
2023/06/01 08:39:31;;;;;;;;;;;15.10;99.90;;;;;;5011234;28;19933;-74
2023/06/01 08:42:05;;;;;;;;;;;15.20;99.90;;;;;;5009371;28;19984;-75
2023/06/01 08:44:34;;;;;;;;;;;15.30;99.90;;;;;;5017748;28;19962;-74
2023/06/01 08:47:02;;;;;;;;;;;15.40;99.90;;;;;;5017014;28;19926;-74
2023/06/01 08:49:30;;;;;;;;;;;15.40;99.90;;;;;;5030798;28;20340;-74
2023/06/01 08:51:57;;;;;;;;;;;15.40;99.90;;;;;;5018715;28;19925;-74
2023/06/01 08:54:24;;;;;;;;;;;15.50;99.90;;;;;;5013062;28;19925;-74
2023/06/01 08:56:53;;;;;;;;;;;15.50;99.90;;;;;;5014628;28;20343;-74
2023/06/01 08:59:19;;;;;;;;;;;15.70;99.90;;;;;;5014869;28;19937;-74
2023/06/01 09:01:46;;;;;;;;;;;15.80;99.90;;;;;;5014053;28;19926;-74
2023/06/01 09:04:13;;;;;;;;;;;15.90;99.90;;;;;;5013010;28;19925;-74
2023/06/01 09:06:42;;;;;;;;;;;15.90;99.90;;;;;;5015453;28;20351;-74
2023/06/01 09:09:12;;;;;;;;;;;16.00;99.90;;;;;;5020004;28;19926;-74
2023/06/01 09:11:38;;;;;;;;;;;16.00;99.90;;;;;;5010885;28;19926;-74
2023/06/01 09:14:20;;;;;;;;;;;16.10;99.90;;;;;;5016921;28;19948;-74
2023/06/01 09:16:47;;;;;;;;;;;16.30;99.90;;;;;;5009343;28;19925;-74
2023/06/01 09:19:14;;;;;;;;;;;16.50;99.90;;;;;;5013694;28;19926;-74
2023/06/01 09:21:41;;;;;;;;;;;16.40;99.90;;;;;;5009564;28;19933;-74
2023/06/01 09:24:21;;;;;;;;;;;16.50;99.90;;;;;;5013904;28;19925;-75
2023/06/01 09:26:48;;;;;;;;;;;16.60;99.90;;;;;;5007753;28;19929;-74
2023/06/01 09:29:17;;;;;;;;;;;16.70;99.90;;;;;;5017180;28;20003;-74
2023/06/01 09:31:44;;;;;;;;;;;16.90;99.90;;;;;;5013893;28;20017;-74
2023/06/01 09:34:15;;;;;;;;;;;17.00;99.90;;;;;;5011694;28;20373;-74
2023/06/01 09:36:42;;;;;;;;;;;16.90;99.90;;;;;;5011101;28;19933;-74
2023/06/01 09:39:10;;;;;;;;;;;16.80;99.90;;;;;;5016681;28;19932;-74
2023/06/01 09:41:47;;;;;;;;;;;16.90;99.90;;;;;;5018359;28;19965;-75
2023/06/01 09:44:14;;;;;;;;;;;17.10;99.90;;;;;;5016326;28;20388;-74
2023/06/01 09:46:49;;;;;;;;;;;17.20;99.90;;;;;;5013973;28;19929;-75
2023/06/01 09:49:20;;;;;;;;;;;17.40;99.90;;;;;;5014029;28;19979;-75
2023/06/01 09:51:47;;;;;;;;;;;17.60;99.90;;;;;;5016643;28;20024;-74
2023/06/01 09:54:22;;;;;;;;;;;17.80;99.90;;;;;;5010291;28;19925;-74
2023/06/01 09:56:49;;;;;;;;;;;17.70;99.90;;;;;;5013441;28;20289;-75
2023/06/01 09:59:16;;;;;;;;;;;17.60;99.90;;;;;;5015965;28;19926;-75
2023/06/01 10:01:44;;;;;;;;;;;17.60;99.90;;;;;;5013452;28;19941;-74
2023/06/01 10:04:15;;;;;;;;;;;17.70;99.90;;;;;;5011805;28;19933;-74
2023/06/01 10:06:43;;;;;;;;;;;17.80;99.90;;;;;;5009662;28;19933;-75
2023/06/01 10:09:14;;;;;;;;;;;17.90;99.90;;;;;;5015568;28;19991;-74
2023/06/01 10:11:40;;;;;;;;;;;17.80;99.90;;;;;;5008162;28;20154;-74
2023/06/01 10:14:07;;;;;;;;;;;17.80;99.90;;;;;;5015229;28;19980;-74
2023/06/01 10:16:35;;;;;;;;;;;17.80;99.90;;;;;;5011362;28;19929;-75
2023/06/01 10:19:02;;;;;;;;;;;17.90;99.90;;;;;;5017289;28;19957;-74
2023/06/01 10:21:32;;;;;;;;;;;18.10;99.90;;;;;;5014102;28;19933;-74
2023/06/01 10:23:58;;;;;;;;;;;18.10;99.90;;;;;;5012410;28;19925;-74
2023/06/01 10:26:27;;;;;;;;;;;18.00;99.90;;;;;;5011341;28;19935;-74
2023/06/01 10:28:55;;;;;;;;;;;18.00;99.90;;;;;;5012966;28;19926;-74
2023/06/01 10:31:38;;;;;;;;;;;18.10;99.90;;;;;;5012868;28;19925;-74
2023/06/01 10:34:06;;;;;;;;;;;18.20;99.90;;;;;;5012666;28;20360;-74
2023/06/01 10:36:51;;;;;;;;;;;18.20;99.90;;;;;;5009993;28;19933;-74
2023/06/01 10:39:27;;;;;;;;;;;18.30;99.90;;;;;;5011244;28;19925;-74
2023/06/01 10:41:54;;;;;;;;;;;18.40;99.90;;;;;;5012159;28;19932;-74
2023/06/01 10:44:39;;;;;;;;;;;18.50;99.90;;;;;;5014716;28;20400;-74
2023/06/01 10:47:06;;;;;;;;;;;18.70;99.90;;;;;;5012097;28;19926;-75
2023/06/01 10:49:52;;;;;;;;;;;19.00;99.90;;;;;;5012776;28;19956;-74
2023/06/01 10:52:25;;;;;;;;;;;19.20;99.90;;;;;;5011097;28;19995;-74
2023/06/01 10:54:53;;;;;;;;;;;19.50;99.90;;;;;;5015874;28;19929;-74
2023/06/01 10:57:24;;;;;;;;;;;19.80;99.90;;;;;;5013476;28;19960;-74
2023/06/01 11:00:09;;;;;;;;;;;19.90;99.90;;;;;;5014163;28;19925;-75
2023/06/01 11:02:42;;;;;;;;;;;20.00;99.90;;;;;;5015483;28;20388;-75
2023/06/01 11:05:28;;;;;;;;;;;20.00;99.90;;;;;;5017012;28;20355;-72
2023/06/01 11:07:55;;;;;;;;;;;20.00;99.90;;;;;;5012165;28;19988;-75
2023/06/01 11:10:37;;;;;;;;;;;19.90;99.90;;;;;;5015027;28;19971;-74
2023/06/01 11:13:17;;;;;;;;;;;19.90;99.90;;;;;;5004434;28;19980;-74
2023/06/01 11:16:00;;;;;;;;;;;20.20;99.90;;;;;;5008684;28;20479;-75
2023/06/01 11:18:43;;;;;;;;;;;20.20;99.90;;;;;;5013309;28;19925;-75
2023/06/01 11:21:10;;;;;;;;;;;20.50;99.90;;;;;;5015437;28;19932;-75
2023/06/01 11:23:38;;;;;;;;;;;20.60;99.90;;;;;;5006938;28;20344;-75
2023/06/01 11:26:07;;;;;;;;;;;20.70;99.90;;;;;;5012604;28;20379;-75
2023/06/01 11:28:35;;;;;;;;;;;20.80;99.90;;;;;;5014457;28;19972;-74
2023/06/01 11:31:03;;;;;;;;;;;21.10;99.90;;;;;;5017600;28;19929;-75
2023/06/01 11:33:31;;;;;;;;;;;21.30;99.90;;;;;;5010542;28;20369;-75
2023/06/01 11:36:04;;;;;;;;;;;21.70;99.90;;;;;;5021499;28;19925;-75
2023/06/01 11:38:33;;;;;;;;;;;22.20;99.90;;;;;;5013840;28;20465;-75
2023/06/01 11:41:01;;;;;;;;;;;23.50;99.90;;;;;;5017524;28;20385;-74
2023/06/01 11:43:28;;;;;;;;;;;24.50;99.90;;;;;;5010718;28;19964;-74
2023/06/01 11:46:02;;;;;;;;;;;24.70;99.90;;;;;;5007286;28;19991;-75
2023/06/01 11:48:28;;;;;;;;;;;25.30;99.90;;;;;;5008375;28;19925;-75
2023/06/01 11:50:55;;;;;;;;;;;26.20;99.90;;;;;;5023247;28;19937;-75
2023/06/01 11:53:22;;;;;;;;;;;26.90;99.90;;;;;;5007469;28;19929;-75
2023/06/01 11:55:49;;;;;;;;;;;27.30;99.90;;;;;;5014586;28;19930;-75
2023/06/01 11:58:20;;;;;;;;;;;26.90;99.90;;;;;;5015126;28;20016;-75
2023/06/01 12:00:47;;;;;;;;;;;26.90;99.90;;;;;;5025782;28;19925;-75
2023/06/01 12:03:16;;;;;;;;;;;27.50;99.90;;;;;;5013834;28;19926;-75
2023/06/01 12:05:45;;;;;;;;;;;27.90;99.90;;;;;;5012011;28;20363;-75
2023/06/01 12:08:14;;;;;;;;;;;28.30;99.90;;;;;;5022687;28;19925;-75
2023/06/01 12:10:42;;;;;;;;;;;28.90;99.90;;;;;;5006512;28;19929;-75
2023/06/01 12:13:10;;;;;;;;;;;29.30;99.90;;;;;;5011677;28;20005;-75
2023/06/01 12:15:37;;;;;;;;;;;28.90;99.90;;;;;;5008472;28;19926;-75
2023/06/01 12:18:04;;;;;;;;;;;28.20;99.90;;;;;;5013941;28;20385;-75
2023/06/01 12:20:35;;;;;;;;;;;28.40;99.90;;;;;;5016202;28;19925;-75
2023/06/01 12:23:03;;;;;;;;;;;28.40;99.90;;;;;;5012021;28;19959;-75
2023/06/01 12:25:31;;;;;;;;;;;28.30;99.90;;;;;;5012550;28;19925;-75
2023/06/01 12:28:03;;;;;;;;;;;28.10;99.90;;;;;;5011011;28;20339;-76
2023/06/01 12:30:29;;;;;;;;;;;28.70;99.90;;;;;;5011777;28;19933;-75
2023/06/01 12:32:57;;;;;;;;;;;28.50;99.90;;;;;;5013081;28;20352;-75
2023/06/01 12:35:24;;;;;;;;;;;28.20;99.90;;;;;;5014952;28;20474;-74
2023/06/01 12:38:05;;;;;;;;;;;28.90;99.90;;;;;;5017202;28;19926;-76
2023/06/01 12:40:32;;;;;;;;;;;29.00;99.90;;;;;;5028991;28;20380;-76
2023/06/01 12:42:58;;;;;;;;;;;29.80;99.90;;;;;;5010821;28;20400;-75
2023/06/01 12:45:26;;;;;;;;;;;30.30;99.90;;;;;;5007419;28;19983;-75
2023/06/01 12:47:52;;;;;;;;;;;29.80;99.90;;;;;;5010432;28;19926;-76
2023/06/01 12:50:19;;;;;;;;;;;30.00;99.90;;;;;;5012441;28;19925;-75
2023/06/01 12:52:46;;;;;;;;;;;29.20;99.90;;;;;;5026774;28;19926;-75
2023/06/01 12:55:14;;;;;;;;;;;29.20;99.90;;;;;;5009718;28;19936;-75
2023/06/01 12:57:43;;;;;;;;;;;29.90;99.90;;;;;;5015070;28;19925;-76
2023/06/01 13:00:11;;;;;;;;;;;30.20;99.90;;;;;;5014503;28;19930;-75
2023/06/01 13:02:38;;;;;;;;;;;30.40;99.90;;;;;;5017679;28;20015;-75
2023/06/01 13:05:05;;;;;;;;;;;30.20;99.90;;;;;;5012558;28;19932;-75
2023/06/01 13:07:32;;;;;;;;;;;30.60;99.90;;;;;;5008318;28;20423;-76
2023/06/01 13:10:00;;;;;;;;;;;30.70;99.90;;;;;;5011754;28;20340;-76
2023/06/01 13:12:28;;;;;;;;;;;30.30;99.90;;;;;;5010631;28;20009;-76
2023/06/01 13:14:55;;;;;;;;;;;30.20;99.90;;;;;;5006404;28;19983;-76
2023/06/01 13:17:22;;;;;;;;;;;29.80;99.90;;;;;;5012346;28;19925;-75
2023/06/01 13:19:49;;;;;;;;;;;30.40;99.90;;;;;;5021067;28;20348;-76
2023/06/01 13:22:16;;;;;;;;;;;30.70;99.90;;;;;;5012672;28;19925;-76
2023/06/01 13:24:42;;;;;;;;;;;31.20;99.90;;;;;;5011038;28;20363;-76
2023/06/01 13:27:10;;;;;;;;;;;30.80;99.90;;;;;;5011919;28;19925;-76
2023/06/01 13:29:38;;;;;;;;;;;30.50;99.90;;;;;;5012033;28;20016;-76
2023/06/01 13:32:05;;;;;;;;;;;30.60;99.90;;;;;;5011758;28;19937;-76
2023/06/01 13:34:33;;;;;;;;;;;31.30;99.90;;;;;;5011774;28;19980;-76
2023/06/01 13:37:00;;;;;;;;;;;31.30;99.90;;;;;;5010153;28;19925;-76
2023/06/01 13:39:26;;;;;;;;;;;31.40;99.90;;;;;;5012084;28;20024;-75
2023/06/01 13:41:53;;;;;;;;;;;31.30;99.90;;;;;;5020040;28;19929;-77
2023/06/01 13:44:20;;;;;;;;;;;31.20;99.90;;;;;;5011959;28;19925;-76
2023/06/01 13:46:49;;;;;;;;;;;30.80;99.90;;;;;;5011619;28;19952;-75
2023/06/01 13:49:16;;;;;;;;;;;31.10;99.90;;;;;;5011567;28;19925;-76
2023/06/01 13:51:42;;;;;;;;;;;30.80;99.90;;;;;;5009583;28;19933;-76
2023/06/01 13:54:10;;;;;;;;;;;31.30;99.90;;;;;;5010066;28;19933;-76
2023/06/01 13:56:37;;;;;;;;;;;31.80;99.90;;;;;;5012947;28;19925;-76
2023/06/01 13:59:04;;;;;;;;;;;31.70;99.90;;;;;;5011235;28;20389;-76
2023/06/01 14:01:30;;;;;;;;;;;32.00;99.90;;;;;;5011645;28;20304;-76
2023/06/01 14:03:59;;;;;;;;;;;32.30;99.90;;;;;;5010934;28;20303;-76
2023/06/01 14:06:25;;;;;;;;;;;31.20;99.90;;;;;;5010960;28;19965;-76
2023/06/01 14:08:52;;;;;;;;;;;30.80;99.90;;;;;;5016766;28;19929;-76
2023/06/01 14:11:19;;;;;;;;;;;31.10;99.90;;;;;;5011893;28;20301;-76
2023/06/01 14:13:46;;;;;;;;;;;30.50;99.90;;;;;;5010710;28;19976;-76
2023/06/01 14:16:13;;;;;;;;;;;29.90;99.90;;;;;;5009668;28;19926;-76
2023/06/01 14:18:40;;;;;;;;;;;29.70;99.90;;;;;;5006372;28;20340;-76
2023/06/01 14:21:09;;;;;;;;;;;30.10;99.90;;;;;;5010829;28;19933;-76
2023/06/01 14:23:36;;;;;;;;;;;30.20;99.90;;;;;;5016028;28;19940;-76